Time;durP1;ratioP1;P1;durP2;ratioP2;P2;SDS_P1;SDS_P2;PMS_P1;PMS_P2;Temp;Humidity;BMP_temperature;BMP_pressure;BME280_temperature;BME280_humidity;BME280_pressure;Samples;Min_cycle;Max_cycle;Signal;HPM_P1;HPM_P2
2021/11/22 00:02:26;;;;;;;88.03;44.10;;;;;;;1.95;77.43;94002.32;1682924;83;21049;-56
2021/11/22 00:04:55;;;;;;;63.78;31.30;;;;;;;1.86;77.26;93994.52;1689346;83;20991;-56
2021/11/22 00:07:22;;;;;;;69.80;35.43;;;;;;;1.79;77.47;93997.34;1685680;83;21108;-57
2021/11/22 00:09:51;;;;;;;75.80;38.42;;;;;;;1.74;77.39;93997.21;1689361;83;20998;-56
2021/11/22 00:12:18;;;;;;;83.22;39.10;;;;;;;1.70;77.56;94000.39;1706947;83;21059;-55
2021/11/22 00:14:47;;;;;;;155.25;66.47;;;;;;;1.67;77.67;94010.09;1706993;83;21007;-55
2021/11/22 00:17:14;;;;;;;177.43;74.72;;;;;;;1.65;77.74;94005.67;1690479;83;20983;-55
2021/11/22 00:19:43;;;;;;;166.45;73.95;;;;;;;1.63;77.93;94017.52;1675904;84;21011;-56
2021/11/22 00:22:10;;;;;;;168.20;71.33;;;;;;;1.60;78.17;94010.20;1699327;83;21062;-55
2021/11/22 00:24:37;;;;;;;123.60;54.90;;;;;;;1.63;78.50;94022.94;1677514;83;21040;-54
2021/11/22 00:27:05;;;;;;;129.32;55.67;;;;;;;1.65;78.15;94023.89;1694604;83;21090;-54
2021/11/22 00:29:33;;;;;;;145.57;62.30;;;;;;;1.61;78.06;94024.51;1701595;83;20975;-55
2021/11/22 00:32:05;;;;;;;125.35;56.25;;;;;;;1.59;78.30;94024.15;1684737;83;21145;-54
2021/11/22 00:34:44;;;;;;;104.72;51.33;;;;;;;1.59;78.30;94020.87;1692696;83;21104;-55
2021/11/22 00:37:35;;;;;;;;;;;;;;;1.57;78.14;94017.80;1697437;83;20975;-54
2021/11/22 00:40:02;;;;;;;84.87;43.40;;;;;;;1.51;78.31;94024.08;1680914;84;21149;-56
2021/11/22 00:42:29;;;;;;;98.30;49.53;;;;;;;1.46;78.48;94025.29;1703378;83;21518;-56
2021/11/22 00:44:57;;;;;;;129.45;75.03;;;;;;;1.38;78.37;94031.20;1688895;83;21113;-56
2021/11/22 00:47:24;;;;;;;136.60;73.05;;;;;;;1.34;78.90;94028.53;1695647;83;20970;-55
2021/11/22 00:49:51;;;;;;;84.25;44.35;;;;;;;1.35;78.74;94032.02;1707219;83;22136;-55
2021/11/22 00:52:18;;;;;;;101.47;53.08;;;;;;;1.30;78.63;94031.88;1693380;83;21124;-55
2021/11/22 00:54:46;;;;;;;88.03;44.60;;;;;;;1.26;78.59;94040.63;1706734;83;21514;-55
2021/11/22 00:57:14;;;;;;;89.70;45.10;;;;;;;1.23;78.77;94036.03;1689988;83;21022;-55
2021/11/22 00:59:42;;;;;;;85.85;44.00;;;;;;;1.24;78.92;94032.15;1685996;83;21046;-55
2021/11/22 01:02:10;;;;;;;94.47;47.58;;;;;;;1.24;78.91;94034.08;1697973;83;21439;-55
2021/11/22 01:04:37;;;;;;;154.87;69.75;;;;;;;1.20;78.76;94031.42;1689441;83;21129;-55
2021/11/22 01:07:05;;;;;;;167.95;72.82;;;;;;;1.12;78.57;94046.20;1693519;84;21424;-54
2021/11/22 01:09:32;;;;;;;92.27;46.15;;;;;;;1.07;78.93;94040.46;1692017;83;21117;-55
2021/11/22 01:12:00;;;;;;;138.15;66.80;;;;;;;1.08;79.17;94040.07;1682309;83;21003;-55
2021/11/22 01:14:28;;;;;;;114.32;56.98;;;;;;;1.07;79.17;94039.11;1687361;84;21070;-55
2021/11/22 01:16:56;;;;;;;96.42;49.10;;;;;;;1.04;79.14;94039.34;1692402;83;21128;-56
2021/11/22 01:19:23;;;;;;;131.47;72.47;;;;;;;0.98;79.07;94041.54;1700910;83;21014;-55
2021/11/22 01:21:50;;;;;;;102.95;51.37;;;;;;;0.90;79.28;94049.53;1687196;83;21514;-55
2021/11/22 01:24:17;;;;;;;97.50;49.73;;;;;;;0.87;79.32;94044.93;1701818;83;20983;-55
2021/11/22 01:26:44;;;;;;;99.35;48.58;;;;;;;0.86;79.60;94045.53;1693098;84;20993;-55
2021/11/22 01:29:12;;;;;;;91.72;47.98;;;;;;;0.83;79.48;94044.98;1687009;83;21195;-56
2021/11/22 01:31:40;;;;;;;99.03;48.95;;;;;;;0.80;79.49;94048.48;1696920;83;21097;-56
2021/11/22 01:34:08;;;;;;;96.97;49.23;;;;;;;0.83;79.65;94048.27;1692307;83;21005;-55
2021/11/22 01:36:35;;;;;;;92.60;47.53;;;;;;;0.88;79.59;94050.53;1676435;84;21070;-55
2021/11/22 01:39:02;;;;;;;86.50;46.73;;;;;;;0.93;79.62;94053.57;1691591;83;21106;-55
2021/11/22 01:41:30;;;;;;;77.32;40.43;;;;;;;0.98;79.47;94049.06;1695373;84;21815;-56
2021/11/22 01:43:57;;;;;;;71.07;36.93;;;;;;;1.01;79.01;94042.08;1686325;83;21078;-56
2021/11/22 01:46:26;;;;;;;53.90;29.48;;;;;;;1.02;78.70;94056.58;1691095;83;21037;-56
2021/11/22 01:48:56;;;;;;;79.75;43.58;;;;;;;0.98;78.68;94050.41;1700027;83;21228;-55
2021/11/22 01:51:22;;;;;;;99.90;47.85;;;;;;;0.96;78.48;94047.34;1692052;83;20979;-55
2021/11/22 01:53:51;;;;;;;94.75;45.28;;;;;;;0.90;78.67;94059.80;1703865;83;20947;-56
2021/11/22 01:56:22;;;;;;;99.67;47.98;;;;;;;0.91;78.77;94061.91;1690060;83;20999;-55
2021/11/22 01:58:49;;;;;;;94.87;45.85;;;;;;;0.92;78.60;94062.11;1702954;83;21015;-55
2021/11/22 02:01:16;;;;;;;85.50;43.60;;;;;;;0.88;78.56;94062.71;1691698;83;21050;-56
2021/11/22 02:03:43;;;;;;;69.17;37.00;;;;;;;0.84;78.38;94063.34;1698237;83;20948;-55
2021/11/22 02:06:11;;;;;;;63.68;34.67;;;;;;;0.77;78.21;94065.52;1694685;83;21070;-55
2021/11/22 02:08:39;;;;;;;110.00;56.95;;;;;;;0.73;78.29;94062.09;1687761;83;21066;-54
2021/11/22 02:11:07;;;;;;;121.30;61.75;;;;;;;0.73;78.47;94072.13;1691702;83;21130;-56
2021/11/22 02:13:34;;;;;;;115.95;65.12;;;;;;;0.69;78.36;94073.54;1692877;83;21239;-56
2021/11/22 02:16:01;;;;;;;95.97;51.15;;;;;;;0.64;78.59;94080.75;1690184;83;20943;-55
2021/11/22 02:18:29;;;;;;;92.35;47.98;;;;;;;0.61;78.65;94082.88;1704494;83;21297;-56
2021/11/22 02:20:56;;;;;;;92.92;49.93;;;;;;;0.63;79.09;94086.55;1701689;83;21050;-56
2021/11/22 02:23:24;;;;;;;92.17;50.98;;;;;;;0.67;79.08;94088.06;1688557;83;20971;-56
2021/11/22 02:25:51;;;;;;;91.72;47.45;;;;;;;0.72;78.80;94080.85;1666226;84;21550;-56
2021/11/22 02:28:19;;;;;;;426.22;188.62;;;;;;;0.76;78.85;94086.99;1693266;83;21019;-56
2021/11/22 02:30:49;;;;;;;158.20;75.67;;;;;;;0.78;78.42;94092.77;1701531;83;20999;-56
2021/11/22 02:33:21;;;;;;;141.50;70.05;;;;;;;0.77;78.37;94091.84;1682169;83;21022;-55
2021/11/22 02:35:51;;;;;;;110.55;55.78;;;;;;;0.77;78.46;94091.84;1684451;83;20978;-55
2021/11/22 02:38:23;;;;;;;107.55;59.20;;;;;;;0.76;78.20;94090.30;1688267;83;21067;-56
2021/11/22 02:40:50;;;;;;;122.50;65.62;;;;;;;0.73;78.27;94091.86;1688267;83;21046;-56
2021/11/22 02:43:17;;;;;;;104.65;54.25;;;;;;;0.70;78.20;94097.30;1696526;83;21079;-54
2021/11/22 02:45:44;;;;;;;139.10;59.73;;;;;;;0.65;78.09;94097.16;1693591;83;21003;-56
2021/11/22 02:48:11;;;;;;;148.53;66.72;;;;;;;0.59;78.03;94102.80;1699809;83;21470;-54
2021/11/22 02:50:39;;;;;;;139.00;72.72;;;;;;;0.50;78.11;94096.31;1698947;83;21058;-55
2021/11/22 02:53:06;;;;;;;160.30;79.87;;;;;;;0.45;78.28;94101.55;1691730;83;21129;-57
2021/11/22 02:55:34;;;;;;;151.85;82.17;;;;;;;0.36;78.38;94099.90;1698012;83;21216;-55
2021/11/22 02:58:01;;;;;;;127.32;71.25;;;;;;;0.34;78.50;94098.75;1684935;83;20955;-55
2021/11/22 03:00:31;;;;;;;141.50;72.08;;;;;;;0.31;78.54;94100.91;1685728;83;21132;-55
2021/11/22 03:02:58;;;;;;;130.87;71.62;;;;;;;0.26;78.51;94093.97;1688534;83;20990;-56
2021/11/22 03:05:25;;;;;;;156.52;84.55;;;;;;;0.21;78.52;94103.88;1688339;83;21113;-55
2021/11/22 03:07:54;;;;;;;153.57;83.55;;;;;;;0.19;78.70;94111.61;1679418;83;21132;-55
2021/11/22 03:10:22;;;;;;;186.45;98.05;;;;;;;0.21;78.85;94102.52;1689033;83;20995;-55
2021/11/22 03:12:50;;;;;;;166.03;89.58;;;;;;;0.24;78.89;94107.13;1692160;83;20966;-55
2021/11/22 03:15:18;;;;;;;170.57;91.08;;;;;;;0.30;78.92;94113.67;1686680;83;21456;-55
2021/11/22 03:17:45;;;;;;;160.75;84.40;;;;;;;0.30;78.86;94108.27;1681356;83;21592;-55
2021/11/22 03:20:15;;;;;;;174.20;91.05;;;;;;;0.32;78.77;94104.58;1688616;83;21094;-55
2021/11/22 03:22:43;;;;;;;162.25;83.12;;;;;;;0.35;78.86;94106.48;1691914;83;20972;-55
2021/11/22 03:25:12;;;;;;;157.97;78.25;;;;;;;0.44;78.83;94106.03;1691469;83;20967;-55
2021/11/22 03:27:41;;;;;;;161.07;87.25;;;;;;;0.57;78.91;94113.26;1699206;83;21586;-55
2021/11/22 03:30:10;;;;;;;146.68;76.67;;;;;;;0.69;78.42;94107.37;1700720;83;21011;-55
2021/11/22 03:32:37;;;;;;;158.42;79.92;;;;;;;0.80;78.08;94121.56;1686943;83;21499;-55
2021/11/22 03:35:06;;;;;;;146.72;73.80;;;;;;;0.90;77.69;94115.86;1690820;83;21127;-55
2021/11/22 03:37:33;;;;;;;138.50;71.92;;;;;;;0.98;77.33;94113.30;1698771;83;21011;-56
2021/11/22 03:40:00;;;;;;;134.57;68.72;;;;;;;0.99;77.03;94112.88;1681420;83;21762;-56
2021/11/22 03:42:36;;;;;;;102.62;54.38;;;;;;;0.97;76.83;94113.86;1682395;83;21653;-56
2021/11/22 03:44:56;;;;;;;115.97;61.25;;;;;;;0.90;76.39;94117.22;1685085;84;21147;-57
2021/11/22 03:47:24;;;;;;;129.12;59.48;;;;;;;0.82;76.51;94123.31;1684757;83;20974;-56
2021/11/22 03:49:53;;;;;;;280.90;127.95;;;;;;;0.82;76.40;94121.17;1680950;84;21102;-55
2021/11/22 03:52:21;;;;;;;234.12;109.48;;;;;;;0.77;76.41;94119.66;1701683;83;21462;-55
2021/11/22 03:54:48;;;;;;;269.48;123.90;;;;;;;0.81;76.57;94125.05;1702614;83;21076;-55
2021/11/22 03:57:16;;;;;;;145.90;70.60;;;;;;;0.85;76.46;94121.15;1683926;83;21131;-56
2021/11/22 03:59:43;;;;;;;90.72;47.23;;;;;;;0.86;76.35;94126.75;1695770;83;20967;-59
2021/11/22 04:02:12;;;;;;;89.15;46.15;;;;;;;0.85;76.51;94131.98;1698983;83;21023;-55
2021/11/22 04:04:40;;;;;;;154.05;75.60;;;;;;;0.90;76.65;94133.46;1689262;83;21003;-56
2021/11/22 04:07:07;;;;;;;158.90;76.35;;;;;;;0.99;76.70;94135.89;1705246;83;21517;-55
2021/11/22 04:09:35;;;;;;;157.70;79.25;;;;;;;1.05;76.33;94134.88;1699809;83;21505;-57
2021/11/22 04:12:04;;;;;;;206.35;105.20;;;;;;;1.08;76.33;94141.62;1676263;83;21199;-55
2021/11/22 04:14:31;;;;;;;130.25;67.80;;;;;;;1.11;76.14;94146.83;1680754;83;21019;-55
2021/11/22 04:17:00;;;;;;;103.85;58.05;;;;;;;1.10;76.26;94146.05;1694398;83;21144;-55
2021/11/22 04:19:27;;;;;;;97.85;52.15;;;;;;;1.05;76.16;94149.20;1695397;83;21239;-55
2021/11/22 04:21:54;;;;;;;81.12;45.28;;;;;;;1.04;76.33;94150.37;1689311;83;21119;-55
2021/11/22 04:24:21;;;;;;;69.58;40.00;;;;;;;1.07;76.35;94148.78;1691325;83;21427;-59
2021/11/22 04:26:49;;;;;;;128.25;74.58;;;;;;;1.08;75.91;94153.80;1698197;83;21054;-55
2021/11/22 04:29:16;;;;;;;113.50;62.45;;;;;;;1.02;75.97;94154.06;1692643;83;22272;-55
2021/11/22 04:31:43;;;;;;;89.95;45.20;;;;;;;1.12;76.64;94156.49;1697054;83;20979;-55
2021/11/22 04:34:10;;;;;;;102.53;48.02;;;;;;;1.19;76.02;94158.55;1678768;83;21136;-55
2021/11/22 04:36:38;;;;;;;79.50;42.45;;;;;;;1.19;75.83;94156.41;1686435;83;21004;-55
2021/11/22 04:39:05;;;;;;;89.13;42.67;;;;;;;1.18;75.93;94161.64;1695465;84;21034;-56
2021/11/22 04:41:32;;;;;;;84.25;43.28;;;;;;;1.17;75.72;94164.17;1692009;83;21079;-55
2021/11/22 04:44:02;;;;;;;80.00;39.63;;;;;;;1.15;75.56;94164.56;1706603;83;21016;-56
2021/11/22 04:46:28;;;;;;;106.07;53.13;;;;;;;1.08;75.57;94164.64;1691715;83;21828;-55
2021/11/22 04:48:56;;;;;;;101.40;51.73;;;;;;;1.09;75.95;94163.47;1704230;83;21494;-55
2021/11/22 04:51:23;;;;;;;102.70;51.42;;;;;;;1.19;75.95;94166.67;1686072;83;20982;-55
2021/11/22 04:53:50;;;;;;;102.27;48.52;;;;;;;1.28;75.67;94162.89;1689471;83;21264;-55
2021/11/22 04:56:17;;;;;;;80.35;42.73;;;;;;;1.31;75.54;94169.46;1695053;83;21078;-56
2021/11/22 04:58:45;;;;;;;81.90;42.33;;;;;;;1.35;75.46;94170.19;1703596;83;21145;-56
2021/11/22 05:01:12;;;;;;;72.17;38.38;;;;;;;1.42;75.50;94173.59;1686874;83;21125;-57
2021/11/22 05:03:40;;;;;;;74.22;38.10;;;;;;;1.47;75.28;94173.75;1686915;83;21015;-56
2021/11/22 05:06:07;;;;;;;86.22;43.33;;;;;;;1.47;75.32;94176.46;1699326;83;21002;-56
2021/11/22 05:08:35;;;;;;;86.37;49.13;;;;;;;1.54;75.79;94183.15;1689587;83;20959;-56
2021/11/22 05:11:04;;;;;;;86.78;48.70;;;;;;;1.63;75.58;94186.14;1697852;83;21149;-56
2021/11/22 05:13:32;;;;;;;90.92;48.10;;;;;;;1.66;75.80;94198.30;1705261;83;20958;-56
2021/11/22 05:15:59;;;;;;;84.95;44.98;;;;;;;1.79;75.69;94197.98;1698485;83;21050;-56
2021/11/22 05:18:26;;;;;;;70.15;39.65;;;;;;;1.86;75.50;94199.23;1698880;83;21085;-57
2021/11/22 05:20:53;;;;;;;72.12;35.68;;;;;;;1.93;75.49;94199.17;1684544;83;21000;-57
2021/11/22 05:23:20;;;;;;;81.50;34.90;;;;;;;1.94;75.22;94212.31;1674076;84;21696;-55
2021/11/22 05:25:48;;;;;;;79.12;37.67;;;;;;;1.95;75.21;94215.81;1694964;83;21498;-56
2021/11/22 05:28:15;;;;;;;73.22;36.35;;;;;;;1.96;74.90;94210.56;1704023;83;21081;-56
2021/11/22 05:30:42;;;;;;;100.27;49.98;;;;;;;1.94;74.97;94212.91;1691013;83;21010;-57
2021/11/22 05:33:10;;;;;;;108.72;56.70;;;;;;;1.89;74.93;94216.05;1682644;83;21534;-56
2021/11/22 05:35:37;;;;;;;140.30;76.55;;;;;;;1.88;75.08;94213.94;1682752;83;21145;-56
2021/11/22 05:38:05;;;;;;;112.25;63.38;;;;;;;1.91;75.20;94220.48;1689841;83;20956;-56
2021/11/22 05:40:32;;;;;;;89.65;51.35;;;;;;;1.99;75.25;94213.81;1693999;84;20978;-60
2021/11/22 05:42:59;;;;;;;88.75;47.78;;;;;;;2.04;75.18;94215.50;1688773;83;22831;-56
2021/11/22 05:45:26;;;;;;;98.03;53.87;;;;;;;2.17;75.34;94223.87;1698643;83;21073;-56
2021/11/22 05:47:54;;;;;;;90.20;48.23;;;;;;;2.22;74.87;94220.12;1701104;83;21158;-58
2021/11/22 05:50:23;;;;;;;84.20;47.00;;;;;;;2.23;74.83;94215.45;1706509;83;20961;-56
2021/11/22 05:52:53;;;;;;;103.05;50.92;;;;;;;2.25;74.57;94219.88;1706189;83;20970;-57
2021/11/22 05:55:39;;;;;;;103.90;54.85;;;;;;;2.23;74.54;94227.66;1690094;83;21042;-57
2021/11/22 05:57:53;;;;;;;96.85;56.50;;;;;;;2.27;74.80;94231.09;1675914;83;21010;-59
2021/11/22 06:00:21;;;;;;;113.25;63.73;;;;;;;2.31;74.62;94223.09;1691043;83;21136;-57
2021/11/22 06:02:49;;;;;;;101.10;59.60;;;;;;;2.38;74.54;94227.67;1706478;84;21072;-57
2021/11/22 06:05:16;;;;;;;98.87;59.40;;;;;;;2.42;74.56;94225.09;1687993;83;21147;-58
2021/11/22 06:07:43;;;;;;;103.42;59.33;;;;;;;2.44;74.56;94230.88;1699443;83;20971;-56
2021/11/22 06:10:12;;;;;;;79.47;50.10;;;;;;;2.53;74.92;94227.67;1693891;84;21463;-58
2021/11/22 06:12:39;;;;;;;57.90;37.90;;;;;;;2.73;74.56;94232.63;1700037;83;21969;-57
2021/11/22 06:15:07;;;;;;;45.28;28.83;;;;;;;2.77;73.94;94241.48;1701479;83;21054;-57
2021/11/22 06:17:35;;;;;;;47.58;25.62;;;;;;;2.74;73.95;94245.02;1692836;83;21077;-58
2021/11/22 06:20:04;;;;;;;39.20;20.32;;;;;;;2.68;73.85;94242.59;1698029;83;21079;-59
2021/11/22 06:22:34;;;;;;;47.58;25.25;;;;;;;2.68;74.05;94237.91;1679312;83;21113;-59
2021/11/22 06:25:04;;;;;;;52.15;26.60;;;;;;;2.71;73.95;94241.17;1685194;83;21227;-60
2021/11/22 06:27:32;;;;;;;68.45;37.80;;;;;;;2.70;74.01;94247.02;1688020;83;20970;-66
2021/11/22 06:29:59;;;;;;;76.35;40.92;;;;;;;2.71;73.99;94249.92;1687090;83;21086;-59
2021/11/22 06:32:28;;;;;;;80.57;45.40;;;;;;;2.75;74.05;94251.98;1692184;83;21021;-58
2021/11/22 06:34:55;;;;;;;68.78;40.30;;;;;;;2.76;73.81;94254.31;1691620;83;20989;-58
2021/11/22 06:37:25;;;;;;;65.42;37.50;;;;;;;2.79;74.01;94255.42;1699926;82;21187;-57
2021/11/22 06:39:52;;;;;;;58.38;33.28;;;;;;;2.83;74.00;94258.27;1679835;83;21074;-59
2021/11/22 06:42:20;;;;;;;47.40;27.87;;;;;;;2.87;74.12;94255.52;1685590;83;20979;-61
2021/11/22 06:44:48;;;;;;;35.92;22.60;;;;;;;2.92;74.27;94258.55;1683583;83;21109;-61
2021/11/22 06:47:16;;;;;;;33.48;20.08;;;;;;;3.00;74.34;94253.75;1679993;83;21062;-61
2021/11/22 06:49:43;;;;;;;30.72;20.00;;;;;;;3.10;74.42;94250.12;1691892;82;21374;-58
2021/11/22 06:52:10;;;;;;;25.85;18.17;;;;;;;3.17;74.43;94256.80;1698121;83;21061;-58
2021/11/22 06:54:37;;;;;;;26.02;17.15;;;;;;;3.28;74.49;94250.01;1704024;83;21081;-59
2021/11/22 06:57:05;;;;;;;27.87;16.85;;;;;;;3.41;74.45;94259.73;1695457;83;21056;-62
2021/11/22 06:59:34;;;;;;;36.80;23.77;;;;;;;3.56;74.36;94255.78;1696498;83;21079;-58
2021/11/22 07:02:01;;;;;;;42.33;25.27;;;;;;;3.72;73.86;94255.86;1684000;83;21255;-66
2021/11/22 07:04:30;;;;;;;57.08;34.05;;;;;;;3.82;73.55;94254.92;1648206;83;21077;-65
2021/11/22 07:06:57;;;;;;;82.25;50.65;;;;;;;3.91;73.45;94253.77;1669295;82;21142;-62
2021/11/22 07:09:26;;;;;;;83.65;48.17;;;;;;;4.07;73.21;94257.95;1679090;82;21062;-63
2021/11/22 07:11:56;;;;;;;76.20;46.50;;;;;;;4.14;72.92;94259.77;1674738;82;21012;-65
2021/11/22 07:14:25;;;;;;;82.33;48.78;;;;;;;4.15;72.85;94259.36;1678064;82;21131;-64
2021/11/22 07:16:53;;;;;;;113.50;58.05;;;;;;;4.20;72.97;94264.92;1647547;83;21214;-64
2021/11/22 07:19:21;;;;;;;127.85;63.48;;;;;;;4.34;72.86;94259.97;1667856;82;22479;-70
2021/11/22 07:21:48;;;;;;;84.85;49.90;;;;;;;4.48;72.48;94258.33;1667571;82;22250;-65
2021/11/22 07:24:15;;;;;;;80.80;46.05;;;;;;;4.61;72.10;94272.83;1670057;82;21569;-69
2021/11/22 07:26:42;;;;;;;94.32;54.48;;;;;;;4.65;71.92;94278.20;1681283;83;22195;-61
2021/11/22 07:29:10;;;;;;;96.22;59.00;;;;;;;4.72;71.81;94271.24;1654049;83;21048;-63
2021/11/22 07:31:37;;;;;;;82.37;51.63;;;;;;;4.83;71.48;94271.80;1666287;83;21548;-60
2021/11/22 07:34:06;;;;;;;72.58;46.85;;;;;;;4.82;70.76;94271.02;1671521;83;22562;-68
2021/11/22 07:36:34;;;;;;;78.02;45.25;;;;;;;4.72;70.71;94273.39;1655150;82;21139;-64
2021/11/22 07:39:02;;;;;;;55.45;36.05;;;;;;;4.73;70.96;94274.14;1661586;83;21124;-65
2021/11/22 07:41:29;;;;;;;43.55;28.25;;;;;;;4.79;70.96;94276.56;1678317;82;21031;-67
2021/11/22 07:43:56;;;;;;;46.83;28.45;;;;;;;4.82;70.97;94276.47;1667880;83;21010;-65
2021/11/22 07:46:23;;;;;;;54.55;33.08;;;;;;;4.87;71.02;94277.35;1660591;83;21120;-69
2021/11/22 07:48:50;;;;;;;65.67;40.30;;;;;;;5.00;71.04;94278.22;1670586;82;22183;-61
2021/11/22 07:51:17;;;;;;;62.88;39.25;;;;;;;5.19;70.68;94276.03;1675637;83;21093;-65
2021/11/22 07:53:45;;;;;;;55.73;37.78;;;;;;;5.31;70.37;94278.11;1672313;82;21078;-68
2021/11/22 07:56:12;;;;;;;47.80;30.70;;;;;;;5.43;69.66;94274.72;1680345;82;21084;-68
2021/11/22 07:58:40;;;;;;;43.17;27.85;;;;;;;5.40;68.96;94278.30;1675778;82;21126;-68
2021/11/22 08:01:07;;;;;;;54.63;27.22;;;;;;;5.36;69.02;94283.83;1670950;83;22070;-63
2021/11/22 08:03:34;;;;;;;50.90;31.65;;;;;;;5.39;68.92;94277.52;1664525;83;21137;-65
2021/11/22 08:06:02;;;;;;;47.00;29.40;;;;;;;5.43;68.96;94274.72;1668888;83;21018;-68
2021/11/22 08:08:32;;;;;;;49.33;32.28;;;;;;;5.55;69.30;94282.20;1666173;83;21557;-63
2021/11/22 08:13:42;;;;;;;41.55;28.07;;;;;;;5.94;69.03;94284.80;1679713;83;21746;-70
2021/11/22 08:16:09;;;;;;;41.90;26.35;;;;;;;6.16;68.64;94281.69;1678326;82;21082;-64
2021/11/22 08:18:37;;;;;;;34.60;23.98;;;;;;;6.30;68.27;94285.42;1672103;83;21046;-68
2021/11/22 08:21:04;;;;;;;46.73;28.75;;;;;;;6.42;67.90;94280.59;1648045;83;22097;-61
2021/11/22 08:23:32;;;;;;;60.80;33.00;;;;;;;6.39;67.56;94275.98;1674688;83;21024;-63
2021/11/22 08:26:00;;;;;;;50.20;31.12;;;;;;;6.33;67.75;94282.58;1654899;83;21049;-64
2021/11/22 08:28:27;;;;;;;49.55;31.77;;;;;;;6.38;67.75;94282.66;1667696;83;21151;-64
2021/11/22 08:30:54;;;;;;;52.03;31.73;;;;;;;6.48;67.61;94281.61;1645719;83;21491;-65
2021/11/22 08:33:22;;;;;;;52.43;34.58;;;;;;;6.63;67.50;94286.25;1671269;82;21015;-64
2021/11/22 08:35:49;;;;;;;58.08;32.78;;;;;;;6.74;66.87;94287.31;1678167;83;20994;-64
2021/11/22 08:38:16;;;;;;;47.48;30.75;;;;;;;6.79;66.97;94279.35;1653002;82;21027;-64
2021/11/22 08:40:44;;;;;;;51.00;34.43;;;;;;;6.88;66.89;94277.34;1678285;83;21084;-62
2021/11/22 08:43:14;;;;;;;59.23;34.92;;;;;;;6.93;66.84;94282.27;1650390;83;21070;-64
2021/11/22 08:45:44;;;;;;;54.25;31.27;;;;;;;6.95;66.26;94285.34;1673195;83;21601;-60
2021/11/22 08:48:10;;;;;;;66.45;36.98;;;;;;;6.94;66.16;94291.42;1661046;82;22313;-67
2021/11/22 08:50:38;;;;;;;65.37;35.15;;;;;;;6.84;65.81;94287.59;1686697;82;22370;-64
2021/11/22 08:53:05;;;;;;;73.65;39.60;;;;;;;6.71;65.93;94277.25;1645143;83;21140;-66
2021/11/22 08:55:34;;;;;;;79.58;40.00;;;;;;;6.61;66.08;94286.50;1659740;82;21011;-65
2021/11/22 08:58:02;;;;;;;81.70;37.33;;;;;;;6.58;66.26;94284.64;1672220;83;21065;-62
2021/11/22 09:00:34;;;;;;;70.70;39.35;;;;;;;6.57;66.43;94285.84;1681380;82;21022;-62
2021/11/22 09:03:03;;;;;;;56.13;30.48;;;;;;;6.59;66.53;94286.17;1675656;83;22215;-64
2021/11/22 09:05:30;;;;;;;78.12;43.55;;;;;;;6.62;66.54;94280.61;1675433;82;21140;-60
2021/11/22 09:07:59;;;;;;;73.12;43.58;;;;;;;6.60;66.63;94282.23;1685680;82;20934;-64
2021/11/22 09:10:27;;;;;;;67.42;41.05;;;;;;;6.65;66.57;94285.21;1689849;81;21013;-72
2021/11/22 09:12:55;;;;;;;74.22;41.88;;;;;;;6.74;66.61;94273.65;1682229;83;20994;-60
2021/11/22 09:15:22;;;;;;;82.45;43.08;;;;;;;6.87;66.37;94277.19;1678014;83;21002;-63
2021/11/22 09:17:49;;;;;;;71.75;38.20;;;;;;;6.90;66.11;94270.23;1684704;82;22524;-64
2021/11/22 09:20:16;;;;;;;64.95;33.00;;;;;;;6.93;66.06;94271.33;1675956;82;21412;-70
2021/11/22 09:22:45;;;;;;;68.07;35.08;;;;;;;6.93;66.09;94268.02;1661064;83;21006;-68
2021/11/22 09:25:12;;;;;;;60.45;34.53;;;;;;;6.96;66.19;94266.36;1670487;82;21060;-65
2021/11/22 09:27:39;;;;;;;67.67;36.23;;;;;;;7.02;66.21;94268.70;1678222;83;21107;-70
2021/11/22 09:30:08;;;;;;;52.55;29.15;;;;;;;7.16;66.04;94270.44;1680768;82;21678;-77
2021/11/22 09:32:36;;;;;;;46.85;27.15;;;;;;;7.29;65.39;94271.98;1680237;82;21542;-65
2021/11/22 09:35:04;;;;;;;42.50;26.93;;;;;;;7.31;65.12;94273.67;1682964;83;21035;-66
2021/11/22 09:37:33;;;;;;;48.95;28.42;;;;;;;7.36;65.08;94264.91;1677344;83;22202;-67
2021/11/22 09:40:00;;;;;;;77.15;42.48;;;;;;;7.48;65.18;94261.41;1683811;83;20999;-65
2021/11/22 09:42:27;;;;;;;66.90;37.00;;;;;;;7.61;64.98;94260.81;1670190;82;21103;-61
2021/11/22 09:44:55;;;;;;;67.55;40.90;;;;;;;7.76;64.61;94261.89;1671626;83;21048;-66
2021/11/22 09:47:22;;;;;;;66.35;42.23;;;;;;;7.90;64.56;94261.41;1673342;83;21380;-68
2021/11/22 09:49:54;;;;;;;69.00;44.13;;;;;;;8.03;64.32;94260.78;1659564;83;22328;-69
2021/11/22 09:52:18;;;;;;;67.70;43.40;;;;;;;8.07;64.07;94260.05;1685926;82;21396;-64
2021/11/22 09:54:45;;;;;;;76.28;44.58;;;;;;;8.13;64.05;94255.56;1677849;82;21953;-65
2021/11/22 09:57:14;;;;;;;74.27;46.63;;;;;;;8.16;64.17;94258.00;1678383;83;20996;-63
2021/11/22 09:59:42;;;;;;;68.07;44.38;;;;;;;8.30;63.80;94252.85;1671238;83;21046;-64
2021/11/22 10:02:09;;;;;;;68.17;41.85;;;;;;;8.42;63.34;94256.13;1687708;82;20998;-62
2021/11/22 10:04:36;;;;;;;57.90;35.60;;;;;;;8.43;63.32;94254.92;1684247;83;21030;-61
2021/11/22 10:07:06;;;;;;;57.83;34.25;;;;;;;8.40;63.44;94260.55;1678157;82;21148;-63
2021/11/22 10:09:40;;;;;;;47.70;31.85;;;;;;;8.42;63.25;94258.88;1675251;82;20993;-63
2021/11/22 10:12:15;;;;;;;50.90;32.28;;;;;;;8.48;63.11;94258.48;1652847;83;22479;-59
2021/11/22 10:14:49;;;;;;;36.42;25.10;;;;;;;8.50;63.16;94260.17;1673959;83;21097;-61
2021/11/22 10:17:43;;;;;;;35.03;21.70;;;;;;;8.55;62.91;94260.19;1678472;82;21043;-66
2021/11/22 10:20:16;;;;;;;32.78;21.07;;;;;;;8.54;62.98;94258.06;1674709;83;21198;-67
2021/11/22 10:22:53;;;;;;;24.20;17.30;;;;;;;8.51;62.99;94259.55;1681951;83;22326;-64
2021/11/22 10:25:34;;;;;;;26.77;15.68;;;;;;;8.50;63.08;94258.02;1682967;82;21007;-65
2021/11/22 10:28:25;;;;;;;16.57;12.93;;;;;;;8.46;62.97;94263.62;1682416;82;21078;-65
2021/11/22 10:31:01;;;;;;;21.27;15.63;;;;;;;8.52;63.09;94260.48;1665277;83;21087;-73
2021/11/22 10:33:35;;;;;;;29.00;17.67;;;;;;;8.57;62.83;94250.91;1671958;83;21138;-64
2021/11/22 10:36:09;;;;;;;30.80;18.62;;;;;;;8.64;62.63;94261.64;1648401;83;21045;-64
2021/11/22 10:38:40;;;;;;;37.23;21.97;;;;;;;8.64;62.55;94259.64;1683764;83;21086;-67
2021/11/22 10:41:10;;;;;;;41.63;25.20;;;;;;;8.69;62.52;94259.09;1675692;82;21940;-68
2021/11/22 10:43:52;;;;;;;46.50;29.77;;;;;;;8.73;62.39;94254.23;1676142;82;21030;-67
2021/11/22 10:46:39;;;;;;;53.48;31.75;;;;;;;8.75;62.39;94256.52;1678705;82;21092;-65
2021/11/22 10:49:16;;;;;;;44.23;27.55;;;;;;;8.74;62.13;94250.28;1676545;83;21073;-64
2021/11/22 10:51:47;;;;;;;45.98;29.25;;;;;;;8.70;62.14;94244.17;1659987;83;22210;-62
2021/11/22 10:54:16;;;;;;;68.12;40.12;;;;;;;8.72;62.26;94244.48;1674902;82;22462;-67
2021/11/22 10:56:50;;;;;;;56.10;34.88;;;;;;;8.73;62.28;94239.75;1658790;83;22257;-65
2021/11/22 10:59:22;;;;;;;46.40;28.40;;;;;;;8.71;62.39;94229.84;1678485;82;24762;-70
2021/11/22 11:01:52;;;;;;;46.20;26.05;;;;;;;8.75;62.44;94238.10;1674635;83;21046;-64
2021/11/22 11:04:22;;;;;;;38.50;21.73;;;;;;;8.72;62.21;94242.33;1675669;83;21024;-64
2021/11/22 11:07:05;;;;;;;35.60;21.48;;;;;;;8.72;62.28;94239.00;1682825;83;21056;-61
2021/11/22 11:09:35;;;;;;;33.78;20.30;;;;;;;8.80;62.06;94240.26;1685512;83;21173;-58
2021/11/22 11:12:15;;;;;;;37.25;20.48;;;;;;;8.83;62.08;94230.38;1685867;83;21014;-64
2021/11/22 11:14:55;;;;;;;34.05;21.60;;;;;;;8.80;62.15;94223.05;1689066;83;21061;-61
2021/11/22 11:17:29;;;;;;;41.63;23.40;;;;;;;8.82;62.27;94225.48;1683685;83;21096;-60
2021/11/22 11:19:58;;;;;;;39.10;26.23;;;;;;;8.77;62.26;94224.70;1701342;83;21104;-59
2021/11/22 11:22:27;;;;;;;51.65;27.95;;;;;;;8.73;62.32;94227.41;1664666;83;21140;-62
2021/11/22 11:24:57;;;;;;;66.42;38.30;;;;;;;8.73;62.31;94224.08;1692217;83;21500;-64
2021/11/22 11:27:24;;;;;;;43.95;24.75;;;;;;;8.76;62.38;94227.29;1685011;83;21045;-63
2021/11/22 11:29:51;;;;;;;33.20;21.70;;;;;;;8.85;62.30;94224.61;1695376;83;21564;-62
2021/11/22 11:32:19;;;;;;;34.58;20.65;;;;;;;8.95;62.03;94220.70;1681098;83;21139;-61